Arcola, Missouri
Current Conditions -  °F | °C
As of 11:52 AM on Thursday 30 Oct 2014 (Local Time) from KSGF Reporting Station
Scattered Clouds Scattered Clouds  
Wind Chill: 14°   Ceiling: Unl
Heat Index: 14°   Visibility: 10mi
Dew Point:   Wind: 14mph
Humidity: 67%   Direction: 170°S
Pressure: 30.06"   Gusts: NA
Location:  37.55°N, 93.88°W
Report Text: KSGF 301652Z 17012KT 10SM SCT080 SCT120 14/08 A3006 RMK AO2 RAE42 SLP178 P0001 T01440083
Loading
Personal Weather Stations






























Interactive Weather Map
Tropical Storm Tracking
New forecast layout! Learn more

10-Day Weather Forecast

Advertisements
Track Severe Weather on mobile